createdAt,value
2024-01-11T00:00:17.568Z,46.000000
2024-01-11T00:05:17.396Z,46.000000
2024-01-11T00:10:17.168Z,46.000000
2024-01-11T00:15:17.151Z,45.900000
2024-01-11T00:20:17.324Z,45.800000
2024-01-11T00:25:17.345Z,45.800000
2024-01-11T00:30:17.430Z,45.800000
2024-01-11T00:35:17.207Z,45.700000
2024-01-11T00:40:17.190Z,45.700000
2024-01-11T00:45:17.132Z,45.500000
2024-01-11T00:50:17.116Z,45.400000
2024-01-11T00:55:17.360Z,45.400000
2024-01-11T01:00:17.094Z,45.400000
2024-01-11T01:05:17.627Z,45.300000
2024-01-11T01:10:17.853Z,45.200000
2024-01-11T01:15:17.366Z,45.100000
2024-01-11T01:20:17.243Z,45.100000
2024-01-11T01:25:17.416Z,45.100000
2024-01-11T01:30:17.734Z,45.100000
2024-01-11T01:35:17.764Z,44.900000
2024-01-11T01:40:17.694Z,44.900000
2024-01-11T01:45:18.433Z,44.900000
2024-01-11T01:50:18.645Z,44.900000
2024-01-11T01:55:17.443Z,44.800000
2024-01-11T02:00:17.306Z,44.700000
2024-01-11T02:05:17.405Z,44.700000
2024-01-11T02:10:17.473Z,44.600000
2024-01-11T02:15:17.539Z,44.600000
2024-01-11T02:20:17.394Z,44.600000
2024-01-11T02:25:17.603Z,44.700000
2024-01-11T02:30:17.359Z,44.600000
2024-01-11T02:35:17.648Z,44.600000
2024-01-11T02:40:17.982Z,44.600000
2024-01-11T02:45:17.881Z,44.500000
2024-01-11T02:50:17.541Z,44.500000
2024-01-11T02:55:17.630Z,44.400000
2024-01-11T03:00:17.581Z,44.400000
2024-01-11T03:05:17.913Z,44.400000
2024-01-11T03:10:17.663Z,44.400000
2024-01-11T03:15:17.988Z,44.500000
2024-01-11T03:20:18.021Z,44.500000
2024-01-11T03:25:17.737Z,44.400000
2024-01-11T03:30:18.031Z,44.300000
2024-01-11T03:35:17.823Z,44.200000
2024-01-11T03:40:18.511Z,44.100000
2024-01-11T03:45:19.229Z,44.000000
2024-01-11T03:50:19.071Z,44.100000
2024-01-11T03:55:17.751Z,44.100000
2024-01-11T04:00:17.595Z,44.200000
2024-01-11T04:05:17.789Z,44.200000
2024-01-11T04:10:17.797Z,44.200000
2024-01-11T04:15:17.622Z,44.100000
2024-01-11T04:20:17.699Z,44.000000
2024-01-11T04:25:18.225Z,43.800000
2024-01-11T04:30:17.885Z,43.800000
2024-01-11T04:35:17.865Z,43.700000
2024-01-11T04:40:17.803Z,43.800000
2024-01-11T04:45:17.803Z,43.600000
2024-01-11T04:50:20.095Z,43.500000
2024-01-11T04:55:18.961Z,43.300000
2024-01-11T05:00:19.230Z,43.300000
2024-01-11T05:05:19.089Z,43.200000
2024-01-11T05:10:18.886Z,43.200000
2024-01-11T05:15:18.851Z,43.200000
2024-01-11T05:20:18.834Z,43.100000
2024-01-11T05:25:16.917Z,43.100000
2024-01-11T05:30:18.847Z,43.100000
2024-01-11T05:35:17.211Z,42.900000
2024-01-11T05:40:16.980Z,42.800000
2024-01-11T05:45:20.833Z,42.700000
2024-01-11T05:50:18.148Z,42.600000
2024-01-11T05:55:17.202Z,42.600000
2024-01-11T06:00:16.899Z,42.600000
2024-01-11T06:05:17.090Z,42.600000
2024-01-11T06:10:18.624Z,42.500000
2024-01-11T06:15:16.969Z,42.300000
2024-01-11T06:20:17.065Z,42.200000
2024-01-11T06:25:17.471Z,42.100000
2024-01-11T06:30:17.126Z,42.200000
2024-01-11T06:35:17.142Z,41.900000
2024-01-11T06:40:17.695Z,41.900000
2024-01-11T06:45:17.632Z,41.800000
2024-01-11T06:50:17.172Z,41.900000
2024-01-11T06:55:17.523Z,41.800000
2024-01-11T07:00:17.225Z,41.700000
2024-01-11T07:05:17.384Z,41.600000
2024-01-11T07:10:17.291Z,41.500000
2024-01-11T07:15:17.119Z,41.400000
2024-01-11T07:20:17.993Z,41.300000
2024-01-11T07:25:17.892Z,41.200000
2024-01-11T07:30:17.199Z,41.000000
2024-01-11T07:35:19.266Z,40.900000
2024-01-11T07:40:17.295Z,40.800000
2024-01-11T07:45:18.446Z,40.800000
2024-01-11T07:50:19.007Z,40.700000
2024-01-11T07:55:17.616Z,40.600000
2024-01-11T08:00:17.191Z,40.400000
2024-01-11T08:05:17.683Z,40.400000
2024-01-11T08:10:17.476Z,40.200000
2024-01-11T08:15:17.365Z,40.100000
2024-01-11T08:20:17.403Z,40.000000
2024-01-11T08:25:17.945Z,39.900000
2024-01-11T08:30:17.674Z,39.900000
2024-01-11T08:35:17.587Z,39.800000
2024-01-11T08:40:20.225Z,39.700000
2024-01-11T08:45:17.476Z,39.700000
2024-01-11T08:50:19.214Z,39.500000
2024-01-11T08:55:17.564Z,39.400000
2024-01-11T09:00:17.845Z,39.400000
2024-01-11T09:05:17.820Z,39.400000
2024-01-11T09:10:17.458Z,39.400000
2024-01-11T09:15:18.100Z,39.400000
2024-01-11T09:20:18.035Z,39.400000
2024-01-11T09:25:17.759Z,39.300000
2024-01-11T09:30:17.707Z,39.300000
2024-01-11T09:35:18.724Z,39.300000
2024-01-11T09:40:17.950Z,39.200000
2024-01-11T09:45:18.900Z,39.200000
2024-01-11T09:50:19.588Z,39.100000
2024-01-11T09:55:18.129Z,39.100000
2024-01-11T10:00:17.617Z,39.000000
2024-01-11T10:05:18.488Z,39.100000
2024-01-11T10:10:18.113Z,39.100000
2024-01-11T10:15:17.702Z,39.200000
2024-01-11T10:20:18.734Z,39.100000
2024-01-11T10:25:17.775Z,39.100000
2024-01-11T10:30:18.551Z,39.100000
2024-01-11T10:35:17.742Z,39.100000
2024-01-11T10:40:17.795Z,39.100000
2024-01-11T10:45:18.086Z,39.300000
2024-01-11T10:50:18.058Z,39.300000
2024-01-11T10:55:17.968Z,39.300000
2024-01-11T11:00:17.751Z,39.400000
2024-01-11T11:05:18.014Z,39.400000
2024-01-11T11:10:18.041Z,39.400000
2024-01-11T11:15:17.844Z,39.300000
2024-01-11T11:20:18.205Z,39.300000
2024-01-11T11:25:19.790Z,39.300000
2024-01-11T11:30:17.786Z,39.300000
2024-01-11T11:35:17.865Z,39.300000
2024-01-11T11:40:18.026Z,39.300000
2024-01-11T11:45:18.596Z,39.400000
2024-01-11T11:50:19.824Z,39.300000
2024-01-11T11:55:18.019Z,39.400000
2024-01-11T12:00:17.963Z,39.400000
2024-01-11T12:05:18.254Z,39.400000
2024-01-11T12:10:18.161Z,39.400000
2024-01-11T12:15:18.095Z,39.400000
2024-01-11T12:20:18.471Z,39.400000
2024-01-11T12:25:19.026Z,39.500000
2024-01-11T12:30:18.088Z,39.500000
2024-01-11T12:35:18.229Z,39.500000
2024-01-11T12:40:18.197Z,39.500000
2024-01-11T12:45:18.143Z,39.500000
2024-01-11T12:50:18.117Z,39.500000
2024-01-11T12:55:18.297Z,39.600000
2024-01-11T13:00:18.560Z,39.600000
2024-01-11T13:05:18.304Z,39.500000
2024-01-11T13:10:18.210Z,39.600000
2024-01-11T13:15:18.188Z,39.600000
2024-01-11T13:20:18.119Z,39.600000
2024-01-11T13:25:18.407Z,39.700000
2024-01-11T13:30:18.314Z,39.700000
2024-01-11T13:35:18.716Z,39.700000
2024-01-11T13:40:18.651Z,39.800000
2024-01-11T13:45:18.623Z,39.900000
2024-01-11T13:50:21.165Z,39.800000
2024-01-11T13:55:18.535Z,39.900000
2024-01-11T14:00:18.433Z,40.000000
2024-01-11T14:05:18.372Z,40.000000
2024-01-11T14:10:18.992Z,40.000000
2024-01-11T14:15:18.399Z,40.000000
2024-01-11T14:20:18.566Z,40.200000
2024-01-11T14:25:18.703Z,40.200000
2024-01-11T14:30:18.481Z,40.200000
2024-01-11T14:35:18.572Z,40.300000
2024-01-11T14:40:18.636Z,40.300000
2024-01-11T14:45:18.864Z,40.400000
2024-01-11T14:50:18.495Z,40.400000
2024-01-11T14:55:19.055Z,40.300000
2024-01-11T15:00:18.446Z,40.300000
2024-01-11T15:05:18.498Z,40.400000
2024-01-11T15:10:18.568Z,40.400000
2024-01-11T15:15:18.414Z,40.500000
2024-01-11T15:20:19.075Z,40.600000
2024-01-11T15:25:19.252Z,40.600000
2024-01-11T15:30:18.595Z,40.700000
2024-01-11T15:35:18.572Z,40.700000
2024-01-11T15:40:18.584Z,40.700000
2024-01-11T15:45:20.074Z,40.800000
2024-01-11T15:50:20.520Z,40.900000
2024-01-11T15:55:18.906Z,41.100000
2024-01-11T16:00:18.645Z,41.100000
2024-01-11T16:05:18.813Z,41.300000
2024-01-11T16:10:19.157Z,41.300000
2024-01-11T16:15:18.656Z,41.300000
2024-01-11T16:20:18.819Z,41.300000
2024-01-11T16:25:19.256Z,41.300000
2024-01-11T16:30:18.846Z,41.500000
2024-01-11T16:35:19.801Z,41.500000
2024-01-11T16:40:18.858Z,41.300000
2024-01-11T16:45:18.836Z,41.200000
2024-01-11T16:50:18.919Z,41.900000
2024-01-11T16:55:19.331Z,42.000000
2024-01-11T17:00:19.014Z,41.900000
2024-01-11T17:05:18.837Z,41.800000
2024-01-11T17:10:18.975Z,41.600000
2024-01-11T17:15:18.999Z,41.600000
2024-01-11T17:20:18.874Z,41.600000
2024-01-11T17:25:19.259Z,41.700000
2024-01-11T17:30:19.058Z,41.700000
2024-01-11T17:35:19.340Z,41.900000
2024-01-11T17:40:17.235Z,42.200000
2024-01-11T17:45:18.140Z,42.300000
2024-01-11T17:50:18.435Z,42.300000
2024-01-11T17:55:17.400Z,42.300000
2024-01-11T18:00:16.981Z,42.500000
2024-01-11T18:05:17.024Z,42.600000
2024-01-11T18:10:17.649Z,42.700000
2024-01-11T18:15:17.315Z,42.700000
2024-01-11T18:20:17.164Z,42.600000
2024-01-11T18:25:17.086Z,42.700000
2024-01-11T18:30:17.230Z,42.700000
2024-01-11T18:35:17.377Z,42.600000
2024-01-11T18:40:17.777Z,42.600000
2024-01-11T18:45:17.340Z,42.600000
2024-01-11T18:50:17.405Z,42.600000
2024-01-11T18:55:17.984Z,42.700000
2024-01-11T19:00:17.046Z,42.700000
2024-01-11T19:05:18.579Z,42.700000
2024-01-11T19:10:17.310Z,42.700000
2024-01-11T19:15:17.245Z,42.700000
2024-01-11T19:20:17.562Z,42.700000
2024-01-11T19:25:17.397Z,42.700000
2024-01-11T19:30:17.312Z,42.700000
2024-01-11T19:35:17.376Z,42.800000
2024-01-11T19:40:17.258Z,42.800000
2024-01-11T19:45:18.578Z,42.800000
2024-01-11T19:50:19.021Z,42.800000
2024-01-11T19:55:17.945Z,43.200000
2024-01-11T20:00:17.546Z,43.500000
2024-01-11T20:05:17.309Z,43.500000
2024-01-11T20:10:17.421Z,43.400000
2024-01-11T20:15:17.316Z,43.400000
2024-01-11T20:20:17.261Z,43.500000
2024-01-11T20:25:17.932Z,43.600000
2024-01-11T20:30:17.330Z,43.500000
2024-01-11T20:35:17.432Z,43.500000
2024-01-11T20:40:17.429Z,43.500000
2024-01-11T20:45:17.696Z,43.500000
2024-01-11T20:50:17.454Z,43.400000
2024-01-11T20:55:17.522Z,43.400000
2024-01-11T21:00:17.725Z,43.300000
2024-01-11T21:05:17.686Z,43.300000
2024-01-11T21:10:18.374Z,43.200000
2024-01-11T21:15:17.501Z,43.200000
2024-01-11T21:20:17.793Z,43.000000
2024-01-11T21:25:17.747Z,42.800000
2024-01-11T21:30:17.541Z,42.700000
2024-01-11T21:35:18.515Z,42.500000
2024-01-11T21:40:18.408Z,42.500000
2024-01-11T21:45:18.796Z,42.300000
2024-01-11T21:50:18.416Z,42.200000
2024-01-11T21:55:17.611Z,42.100000
2024-01-11T22:00:17.809Z,41.900000
2024-01-11T22:05:17.596Z,41.800000
2024-01-11T22:10:18.037Z,41.600000
2024-01-11T22:15:17.736Z,41.500000
2024-01-11T22:20:18.113Z,41.400000
2024-01-11T22:25:18.223Z,41.300000
2024-01-11T22:30:17.770Z,41.300000
2024-01-11T22:35:17.720Z,41.300000
2024-01-11T22:40:17.804Z,41.300000
2024-01-11T22:45:18.478Z,41.200000
2024-01-11T22:50:17.793Z,41.100000
2024-01-11T22:55:18.077Z,41.000000
2024-01-11T23:00:17.817Z,41.000000
2024-01-11T23:05:17.952Z,41.000000
2024-01-11T23:10:17.969Z,40.800000
2024-01-11T23:15:17.942Z,40.800000
2024-01-11T23:20:18.212Z,40.800000
2024-01-11T23:25:18.054Z,40.700000
2024-01-11T23:30:18.119Z,40.700000
2024-01-11T23:35:17.895Z,40.600000
2024-01-11T23:40:18.383Z,40.500000
2024-01-11T23:45:19.030Z,40.600000
2024-01-11T23:50:19.889Z,40.600000
2024-01-11T23:55:18.060Z,40.500000
